Time;durP1;ratioP1;P1;durP2;ratioP2;P2;SDS_P1;SDS_P2;PMS_P1;PMS_P2;Temp;Humidity;BMP_temperature;BMP_pressure;BME280_temperature;BME280_humidity;BME280_pressure;Samples;Min_cycle;Max_cycle;Signal;HPM_P1;HPM_P2
2023/03/13 00:00:43;;;;;;;29.03;4.63;;;;;;;-145.18;100.00;60484.78;5042481;28;20029;-68
2023/03/13 00:03:09;;;;;;;37.80;5.53;;;;;;;-145.18;100.00;60484.78;5043033;28;20464;-68
2023/03/13 00:05:35;;;;;;;31.27;5.30;;;;;;;-145.18;100.00;60484.78;5044174;28;20025;-67
2023/03/13 00:08:00;;;;;;;23.90;4.80;;;;;;;-145.18;100.00;60484.78;5046293;28;20154;-67
2023/03/13 00:10:26;;;;;;;26.03;4.27;;;;;;;-145.18;100.00;60484.78;5046832;28;20108;-67
2023/03/13 00:12:51;;;;;;;20.90;4.60;;;;;;;-145.18;100.00;60484.78;5045071;28;20072;-67
2023/03/13 00:15:17;;;;;;;30.27;5.10;;;;;;;-145.18;100.00;60484.78;5039372;28;20029;-67
2023/03/13 00:17:42;;;;;;;22.40;4.03;;;;;;;-145.18;100.00;60484.78;5041698;28;20445;-68
2023/03/13 00:20:08;;;;;;;24.97;4.13;;;;;;;-145.18;100.00;60484.78;5035071;28;20033;-67
2023/03/13 00:22:34;;;;;;;28.33;4.33;;;;;;;-145.18;100.00;60484.78;5044852;28;20388;-68
2023/03/13 00:24:59;;;;;;;26.27;4.13;;;;;;;-145.18;100.00;60484.78;5040358;28;20029;-69
2023/03/13 00:27:24;;;;;;;24.43;5.13;;;;;;;-145.18;100.00;60484.78;5041939;28;20484;-68
2023/03/13 00:29:50;;;;;;;28.40;4.63;;;;;;;-145.18;100.00;60484.78;5042528;28;20033;-68
2023/03/13 00:32:15;;;;;;;30.13;4.33;;;;;;;-145.18;100.00;60484.78;5040291;28;20359;-67
2023/03/13 00:34:41;;;;;;;22.33;4.10;;;;;;;-145.18;100.00;60484.78;5045206;28;20039;-67
2023/03/13 00:37:06;;;;;;;27.30;4.50;;;;;;;-145.18;100.00;60484.78;5044025;28;20594;-69
2023/03/13 00:39:31;;;;;;;21.17;4.17;;;;;;;-145.18;100.00;60484.78;5043620;28;20104;-68
2023/03/13 00:41:57;;;;;;;25.83;4.43;;;;;;;-145.18;100.00;60484.78;5045056;28;20021;-69
2023/03/13 00:44:22;;;;;;;19.23;3.53;;;;;;;-145.18;100.00;60484.78;5040757;28;20037;-67
2023/03/13 00:46:47;;;;;;;20.27;3.83;;;;;;;-145.18;100.00;60484.78;5046808;28;20060;-69
2023/03/13 00:49:13;;;;;;;22.77;4.83;;;;;;;-145.18;100.00;60484.78;5042825;28;20029;-67
2023/03/13 00:51:38;;;;;;;22.53;3.97;;;;;;;-145.18;100.00;60484.78;5045316;28;20507;-68
2023/03/13 00:54:04;;;;;;;31.17;4.40;;;;;;;-145.18;100.00;60484.78;5042481;28;20025;-70
2023/03/13 00:56:29;;;;;;;27.13;4.70;;;;;;;-145.18;100.00;60484.78;5043366;28;20035;-67
2023/03/13 00:58:55;;;;;;;25.20;4.47;;;;;;;-145.18;100.00;60484.78;5042229;28;20061;-68
2023/03/13 01:01:23;;;;;;;24.50;4.13;;;;;;;-145.18;100.00;60484.78;5043314;28;20036;-69
2023/03/13 01:03:53;;;;;;;21.50;4.63;;;;;;;-145.18;100.00;60484.78;5043705;28;20029;-69
2023/03/13 01:06:22;;;;;;;24.10;4.77;;;;;;;-145.18;100.00;60484.78;5042033;28;20028;-67
2023/03/13 01:08:48;;;;;;;23.77;3.93;;;;;;;-145.18;100.00;60484.78;5037333;28;20041;-66
2023/03/13 01:11:26;;;;;;;21.63;4.20;;;;;;;-145.18;100.00;60484.78;5038647;28;20033;-68
2023/03/13 01:13:57;;;;;;;25.97;4.13;;;;;;;-145.18;100.00;60484.78;5035594;28;21208;-66
2023/03/13 01:16:23;;;;;;;23.73;3.97;;;;;;;-145.18;100.00;60484.78;5035234;28;20068;-68
2023/03/13 01:18:54;;;;;;;32.10;4.90;;;;;;;-145.18;100.00;60484.78;5038548;28;20037;-67
2023/03/13 01:21:21;;;;;;;25.93;4.67;;;;;;;-145.18;100.00;60484.78;5043400;28;20029;-67
2023/03/13 01:23:49;;;;;;;23.10;4.00;;;;;;;-145.18;100.00;60484.78;5042709;28;20072;-69
2023/03/13 01:26:15;;;;;;;25.23;4.50;;;;;;;-145.18;100.00;60484.78;5043085;28;20025;-67
2023/03/13 01:28:40;;;;;;;22.33;4.17;;;;;;;-145.18;100.00;60484.78;5039970;28;20051;-66
2023/03/13 01:31:16;;;;;;;28.70;3.70;;;;;;;-145.18;100.00;60484.78;5042281;28;20063;-68
2023/03/13 01:33:41;;;;;;;29.77;5.37;;;;;;;-145.18;100.00;60484.78;5046164;28;20108;-67
2023/03/13 01:36:08;;;;;;;26.03;3.90;;;;;;;-145.18;100.00;60484.78;5038563;28;20115;-68
2023/03/13 01:38:33;;;;;;;26.77;4.43;;;;;;;-145.18;100.00;60484.78;5039895;28;20036;-66
2023/03/13 01:40:59;;;;;;;18.97;3.43;;;;;;;-145.18;100.00;60484.78;5041640;28;20076;-67
2023/03/13 01:43:27;;;;;;;19.67;4.03;;;;;;;-145.18;100.00;60484.78;5043618;28;20162;-67
2023/03/13 01:46:17;;;;;;;20.87;4.53;;;;;;;-145.18;100.00;60484.78;5042672;28;20029;-68
2023/03/13 01:49:01;;;;;;;24.30;4.30;;;;;;;-145.18;100.00;60484.78;5039237;28;20029;-67
2023/03/13 01:51:49;;;;;;;19.67;3.33;;;;;;;-145.18;100.00;60484.78;5043054;28;20079;-68
2023/03/13 01:54:46;;;;;;;25.50;4.40;;;;;;;-145.18;100.00;60484.78;5042093;28;20480;-67
2023/03/13 01:57:22;;;;;;;31.43;5.53;;;;;;;-145.18;100.00;60484.78;5036302;28;20119;-69
2023/03/13 02:00:02;;;;;;;24.27;4.37;;;;;;;-145.18;100.00;60484.78;5041191;28;20036;-67
2023/03/13 02:02:29;;;;;;;19.37;4.83;;;;;;;-145.18;100.00;60484.78;5041677;28;20037;-66
2023/03/13 02:04:58;;;;;;;20.87;3.63;;;;;;;-145.18;100.00;60484.78;5044723;28;20107;-67
2023/03/13 02:07:32;;;;;;;25.90;4.73;;;;;;;-145.18;100.00;60484.78;5040145;28;20615;-67
2023/03/13 02:09:59;;;;;;;22.03;4.13;;;;;;;-145.18;100.00;60484.78;5038085;28;20032;-67
2023/03/13 02:12:34;;;;;;;25.70;4.90;;;;;;;-145.18;100.00;60484.78;5043281;28;20033;-66
2023/03/13 02:15:03;;;;;;;22.90;4.30;;;;;;;-145.18;100.00;60484.78;5042943;28;20051;-67
2023/03/13 02:17:29;;;;;;;27.20;4.33;;;;;;;-145.18;100.00;60484.78;5044023;28;20025;-67
2023/03/13 02:19:55;;;;;;;25.00;4.70;;;;;;;-145.18;100.00;60484.78;5046269;28;20028;-67
2023/03/13 02:22:43;;;;;;;22.13;4.70;;;;;;;-145.18;100.00;60484.78;5041842;28;20040;-67
2023/03/13 02:25:24;;;;;;;26.50;4.37;;;;;;;-145.18;100.00;60484.78;5043803;28;20120;-67
2023/03/13 02:28:13;;;;;;;22.30;4.50;;;;;;;-145.18;100.00;60484.78;5044762;28;20083;-67
2023/03/13 07:27:19;;;;;;;6.35;3.28;;;;;;;-145.18;100.00;60484.78;5044958;28;20174;-65
2023/03/13 07:29:45;;;;;;;6.33;3.23;;;;;;;-145.18;100.00;60484.78;5047397;28;20025;-65
2023/03/13 07:32:10;;;;;;;8.03;3.67;;;;;;;-145.18;100.00;60484.78;5049819;28;20086;-67
2023/03/13 07:34:35;;;;;;;10.13;2.90;;;;;;;-145.18;100.00;60484.78;5048382;28;20024;-67
2023/03/13 07:37:01;;;;;;;8.13;3.53;;;;;;;-145.18;100.00;60484.78;5042967;28;20485;-68
2023/03/13 07:39:26;;;;;;;7.77;3.63;;;;;;;-145.18;100.00;60484.78;5050371;28;20056;-70
2023/03/13 07:41:51;;;;;;;8.13;4.10;;;;;;;-145.18;100.00;60484.78;5043173;28;20033;-68
2023/03/13 07:44:17;;;;;;;7.83;3.50;;;;;;;-145.18;100.00;60484.78;5048033;28;20539;-68
2023/03/13 07:46:42;;;;;;;7.53;3.33;;;;;;;-145.18;100.00;60484.78;5051256;28;20154;-67
2023/03/13 07:49:08;;;;;;;6.77;4.10;;;;;;;-145.18;100.00;60484.78;5052510;28;20384;-67
2023/03/13 07:51:33;;;;;;;5.97;2.93;;;;;;;-145.18;100.00;60484.78;5049878;28;20051;-66
2023/03/13 07:53:59;;;;;;;8.07;3.50;;;;;;;-145.18;100.00;60484.78;5051209;28;20048;-65
2023/03/13 07:56:24;;;;;;;11.63;4.13;;;;;;;-145.18;100.00;60484.78;5045390;28;20112;-69
2023/03/13 07:58:50;;;;;;;8.17;3.27;;;;;;;-145.18;100.00;60484.78;5042324;28;20512;-68
2023/03/13 08:01:17;;;;;;;8.60;3.20;;;;;;;-145.18;100.00;60484.78;5042394;28;20036;-66
2023/03/13 08:03:44;;;;;;;7.83;3.43;;;;;;;-145.18;100.00;60484.78;5047403;28;20068;-67
2023/03/13 08:06:15;;;;;;;6.13;3.30;;;;;;;-145.18;100.00;60484.78;5052291;28;20511;-65
2023/03/13 08:08:41;;;;;;;9.17;3.30;;;;;;;-145.18;100.00;60484.78;5053581;28;20047;-68
2023/03/13 08:11:13;;;;;;;5.17;2.57;;;;;;;-145.18;100.00;60484.78;5053628;28;20100;-67
2023/03/13 08:13:40;;;;;;;;;;;;;;;-145.18;100.00;60484.78;5054056;28;20376;-66
2023/03/13 08:16:14;;;;;;;5.70;2.60;;;;;;;-145.18;100.00;60484.78;5052510;28;19951;-64
2023/03/13 08:18:44;;;;;;;7.93;3.70;;;;;;;-145.18;100.00;60484.78;5052999;28;20056;-67
2023/03/13 08:21:15;;;;;;;6.73;3.10;;;;;;;-145.18;100.00;60484.78;5051871;28;20071;-67
2023/03/13 08:23:41;;;;;;;7.07;2.40;;;;;;;-145.18;100.00;60484.78;5048406;28;20532;-65
2023/03/13 08:26:10;;;;;;;6.87;2.80;;;;;;;-145.18;100.00;60484.78;5050462;28;20043;-64
2023/03/13 08:28:36;;;;;;;5.37;2.43;;;;;;;-145.18;100.00;60484.78;5051797;28;20017;-65
2023/03/13 08:31:17;;;;;;;5.00;2.50;;;;;;;-145.18;100.00;60484.78;5050968;28;20491;-67
2023/03/13 08:33:45;;;;;;;8.18;3.05;;;;;;;-145.18;100.00;60484.78;5049990;28;20025;-69
2023/03/13 08:36:19;;;;;;;5.43;2.40;;;;;;;-145.18;100.00;60484.78;5052112;28;20083;-65
2023/03/13 08:38:46;;;;;;;7.43;3.00;;;;;;;-145.18;100.00;60484.78;5052069;28;20040;-68
2023/03/13 08:41:24;;;;;;;6.57;2.63;;;;;;;-145.18;100.00;60484.78;5053019;28;20033;-67
2023/03/13 08:43:54;;;;;;;8.33;2.63;;;;;;;-145.18;100.00;60484.78;5052587;28;20079;-66
2023/03/13 08:46:20;;;;;;;8.63;2.77;;;;;;;-145.18;100.00;60484.78;5051663;28;20544;-68
2023/03/13 08:48:53;;;;;;;6.10;2.53;;;;;;;-145.18;100.00;60484.78;5052919;28;20092;-68
2023/03/13 08:51:20;;;;;;;7.23;2.67;;;;;;;-145.18;100.00;60484.78;5051639;28;20035;-67
2023/03/13 08:53:46;;;;;;;5.97;2.53;;;;;;;-145.18;100.00;60484.78;5052115;28;20059;-65
2023/03/13 08:56:14;;;;;;;9.23;2.70;;;;;;;-145.18;100.00;60484.78;5051711;28;20033;-67
2023/03/13 08:58:39;;;;;;;8.47;2.73;;;;;;;-145.18;100.00;60484.78;5052424;28;20078;-67
2023/03/13 09:01:13;;;;;;;7.17;3.00;;;;;;;-145.18;100.00;60484.78;5052465;28;20017;-65
2023/03/13 09:03:39;;;;;;;5.90;2.20;;;;;;;-145.18;100.00;60484.78;5052358;28;20017;-67
2023/03/13 09:06:05;;;;;;;6.37;2.30;;;;;;;-145.18;100.00;60484.78;5051326;28;20465;-66
2023/03/13 09:08:32;;;;;;;7.70;2.80;;;;;;;-145.18;100.00;60484.78;5052679;28;20056;-69
2023/03/13 09:11:02;;;;;;;8.03;2.80;;;;;;;-145.18;100.00;60484.78;5052687;28;20527;-68
2023/03/13 09:13:30;;;;;;;6.10;2.40;;;;;;;-145.18;100.00;60484.78;5051929;28;20021;-69
2023/03/13 09:16:06;;;;;;;4.37;1.90;;;;;;;-145.18;100.00;60484.78;5051515;28;20024;-66
2023/03/13 09:18:33;;;;;;;7.37;2.73;;;;;;;-145.18;100.00;60484.78;5051922;28;20178;-67
2023/03/13 09:20:58;;;;;;;5.90;2.50;;;;;;;-145.18;100.00;60484.78;5050938;28;20017;-67
2023/03/13 09:23:24;;;;;;;6.13;1.90;;;;;;;-145.18;100.00;60484.78;5051243;28;20028;-68
2023/03/13 09:25:54;;;;;;;7.63;2.00;;;;;;;-145.18;100.00;60484.78;5050297;28;20043;-66
2023/03/13 09:28:20;;;;;;;4.87;1.87;;;;;;;-145.18;100.00;60484.78;5050843;28;20096;-66
2023/03/13 09:30:48;;;;;;;4.38;2.00;;;;;;;-145.18;100.00;60484.78;5051423;28;20031;-67
2023/03/13 09:33:13;;;;;;;3.20;1.50;;;;;;;-145.18;100.00;60484.78;5044248;28;20089;-64
2023/03/13 09:35:39;;;;;;;9.23;2.25;;;;;;;-145.18;100.00;60484.78;5044010;28;20098;-66
2023/03/13 09:38:05;;;;;;;4.05;1.65;;;;;;;-145.18;100.00;60484.78;5051936;28;20024;-66
2023/03/13 09:40:37;;;;;;;5.57;1.80;;;;;;;-145.18;100.00;60484.78;5051594;28;20124;-66
2023/03/13 09:43:03;;;;;;;4.28;1.45;;;;;;;-145.18;100.00;60484.78;5051133;28;20059;-67
2023/03/13 09:45:40;;;;;;;6.32;2.08;;;;;;;-145.18;100.00;60484.78;5051459;28;20037;-65
2023/03/13 09:48:26;;;;;;;7.82;2.33;;;;;;;-145.18;100.00;60484.78;5051873;28;20016;-66
2023/03/13 09:51:05;;;;;;;5.13;1.77;;;;;;;-145.18;100.00;60484.78;5049198;28;20041;-63
2023/03/13 09:53:40;;;;;;;7.55;2.35;;;;;;;-145.18;100.00;60484.78;5050698;28;20037;-66
2023/03/13 09:56:19;;;;;;;3.35;1.50;;;;;;;-145.18;100.00;60484.78;5052268;28;20021;-67
2023/03/13 09:59:16;;;;;;;4.07;1.67;;;;;;;-145.18;100.00;60484.78;5051463;28;20028;-64
2023/03/13 10:01:42;;;;;;;5.88;1.90;;;;;;;-145.18;100.00;60484.78;5051130;28;20388;-66
2023/03/13 10:04:30;;;;;;;6.53;1.92;;;;;;;-145.18;100.00;60484.78;5050420;28;20063;-66
2023/03/13 10:06:56;;;;;;;7.28;1.80;;;;;;;-145.18;100.00;60484.78;5050858;28;20029;-67
2023/03/13 10:09:31;;;;;;;4.20;1.70;;;;;;;-145.18;100.00;60484.78;5051407;28;20051;-67
2023/03/13 10:12:17;;;;;;;5.05;1.90;;;;;;;-145.18;100.00;60484.78;5050820;28;20505;-67
2023/03/13 10:15:23;;;;;;;4.78;2.10;;;;;;;-145.18;100.00;60484.78;5051143;28;20033;-65
2023/03/13 10:17:48;;;;;;;6.57;1.88;;;;;;;-145.18;100.00;60484.78;5050251;28;20455;-68
2023/03/13 10:20:28;;;;;;;5.10;1.67;;;;;;;-145.18;100.00;60484.78;5050127;28;20029;-64
2023/03/13 10:23:02;;;;;;;5.25;1.73;;;;;;;-145.18;100.00;60484.78;5051188;28;20071;-67
2023/03/13 10:25:37;;;;;;;5.53;1.75;;;;;;;-145.18;100.00;60484.78;5044597;28;20032;-66
2023/03/13 10:28:03;;;;;;;8.48;2.30;;;;;;;-145.18;100.00;60484.78;5051427;28;20029;-66
2023/03/13 10:30:34;;;;;;;5.00;1.40;;;;;;;-145.18;100.00;60484.78;5051029;28;20128;-65
2023/03/13 10:33:05;;;;;;;4.60;1.83;;;;;;;-145.18;100.00;60484.78;5047966;28;20021;-64
2023/03/13 10:35:34;;;;;;;5.50;1.67;;;;;;;-145.18;100.00;60484.78;5050733;28;20037;-67
2023/03/13 10:38:09;;;;;;;4.45;1.65;;;;;;;-145.18;100.00;60484.78;5051614;28;20381;-66
2023/03/13 10:40:35;;;;;;;4.00;1.85;;;;;;;-145.18;100.00;60484.78;5050263;28;20057;-66
2023/03/13 10:43:05;;;;;;;3.65;1.45;;;;;;;-145.18;100.00;60484.78;5053037;28;20060;-64
2023/03/13 10:45:36;;;;;;;4.53;1.50;;;;;;;-145.18;100.00;60484.78;5054862;28;20040;-64
2023/03/13 10:48:18;;;;;;;8.80;1.55;;;;;;;-145.18;100.00;60484.78;5054973;28;20025;-63
2023/03/13 10:50:47;;;;;;;3.35;1.30;;;;;;;-145.18;100.00;60484.78;5054508;28;20083;-64
2023/03/13 10:53:22;;;;;;;4.80;1.40;;;;;;;-145.18;100.00;60484.78;5054511;28;20051;-65
2023/03/13 10:55:48;;;;;;;2.88;1.20;;;;;;;-145.18;100.00;60484.78;5054622;28;20036;-66
2023/03/13 10:58:42;;;;;;;6.72;1.63;;;;;;;-145.18;100.00;60484.78;5053832;28;20428;-64
2023/03/13 11:01:15;;;;;;;5.18;1.42;;;;;;;-145.18;100.00;60484.78;5054249;28;20037;-66
2023/03/13 11:03:42;;;;;;;6.00;1.10;;;;;;;-145.18;100.00;60484.78;5054014;28;20021;-65
2023/03/13 11:06:21;;;;;;;4.35;1.35;;;;;;;-145.18;100.00;60484.78;5052826;28;20044;-64
2023/03/13 11:08:46;;;;;;;3.90;1.50;;;;;;;-145.18;100.00;60484.78;5054477;28;20035;-64
2023/03/13 11:11:19;;;;;;;4.15;1.30;;;;;;;-145.18;100.00;60484.78;5054905;28;20029;-66
2023/03/13 11:13:45;;;;;;;4.32;1.35;;;;;;;-145.18;100.00;60484.78;5054675;28;20031;-65
2023/03/13 11:16:20;;;;;;;4.10;1.30;;;;;;;-145.18;100.00;60484.78;5053315;28;20035;-66
2023/03/13 11:18:53;;;;;;;3.67;1.42;;;;;;;-145.18;100.00;60484.78;5053132;28;20475;-66
2023/03/13 11:21:27;;;;;;;6.57;1.60;;;;;;;-145.18;100.00;60484.78;5054110;28;20059;-67
2023/03/13 11:24:01;;;;;;;4.65;1.40;;;;;;;-145.18;100.00;60484.78;5044927;28;20024;-66
2023/03/13 11:26:30;;;;;;;2.42;1.33;;;;;;;-145.18;100.00;60484.78;5054176;28;20029;-65
2023/03/13 11:29:01;;;;;;;4.07;1.50;;;;;;;-145.18;100.00;60484.78;5052892;28;20393;-66
2023/03/13 11:31:44;;;;;;;3.55;1.40;;;;;;;-145.18;100.00;60484.78;5053957;28;20033;-66
2023/03/13 11:34:31;;;;;;;6.22;1.58;;;;;;;-145.18;100.00;60484.78;5051429;28;20036;-65
2023/03/13 11:37:04;;;;;;;4.55;1.23;;;;;;;-145.18;100.00;60484.78;5054175;28;20024;-64
2023/03/13 11:39:54;;;;;;;3.60;1.15;;;;;;;-145.18;100.00;60484.78;5054338;28;20104;-63
2023/03/13 11:42:41;;;;;;;3.17;1.00;;;;;;;-145.18;100.00;60484.78;5053348;28;20381;-66
2023/03/13 11:45:40;;;;;;;5.45;1.50;;;;;;;-145.18;100.00;60484.78;5053123;28;20024;-66
2023/03/13 11:48:36;;;;;;;3.35;1.05;;;;;;;-145.18;100.00;60484.78;5053010;28;20425;-63
2023/03/13 11:51:16;;;;;;;3.28;0.90;;;;;;;-145.18;100.00;60484.78;5053882;28;20075;-64
2023/03/13 11:53:48;;;;;;;4.70;1.30;;;;;;;-145.18;100.00;60484.78;5053683;28;20428;-65
2023/03/13 11:56:21;;;;;;;4.38;1.05;;;;;;;-145.18;100.00;60484.78;5052935;28;20029;-66
2023/03/13 11:58:53;;;;;;;4.00;1.35;;;;;;;-145.18;100.00;60484.78;5052272;28;20079;-67
2023/03/13 12:01:19;;;;;;;;;;;;;;;-145.18;100.00;60484.78;5053323;28;20064;-64
2023/03/13 12:04:43;;;;;;;3.53;1.13;;;;;;;-145.18;100.00;60484.78;5052784;28;19919;-68
2023/03/13 12:07:19;;;;;;;3.15;1.00;;;;;;;-145.18;100.00;60484.78;5010574;28;20059;-64
2023/03/13 12:09:50;;;;;;;2.63;1.10;;;;;;;-145.18;100.00;60484.78;5011885;28;20441;-67
2023/03/13 12:12:15;;;;;;;4.10;1.27;;;;;;;-145.18;100.00;60484.78;5011662;28;20030;-64
2023/03/13 12:14:58;;;;;;;3.88;1.33;;;;;;;-145.18;100.00;60484.78;5010570;28;20044;-68
2023/03/13 12:17:36;;;;;;;4.72;1.33;;;;;;;-145.18;100.00;60484.78;5011484;28;20046;-65
2023/03/13 12:20:12;;;;;;;4.97;1.10;;;;;;;-145.18;100.00;60484.78;5010339;28;20038;-63
2023/03/13 12:22:43;;;;;;;5.75;1.73;;;;;;;-145.18;100.00;60484.78;5011934;28;20673;-66
2023/03/13 12:25:17;;;;;;;3.85;1.23;;;;;;;-145.18;100.00;60484.78;5010944;28;20056;-67
2023/03/13 12:27:48;;;;;;;3.53;1.45;;;;;;;-145.18;100.00;60484.78;5010914;28;20042;-66
2023/03/13 12:30:47;;;;;;;4.53;1.45;;;;;;;-145.18;100.00;60484.78;4992105;28;20509;-66
2023/03/13 12:33:25;;;;;;;2.28;1.00;;;;;;;-145.18;100.00;60484.78;4992354;28;20038;-66
2023/03/13 12:36:12;;;;;;;5.70;1.80;;;;;;;-145.18;100.00;60484.78;5011178;28;20540;-67
2023/03/13 12:38:52;;;;;;;3.85;1.52;;;;;;;-145.18;100.00;60484.78;5031919;28;20364;-67
2023/03/13 12:41:23;;;;;;;2.40;0.95;;;;;;;-145.18;100.00;60484.78;5045583;28;20051;-64
2023/03/13 12:43:50;;;;;;;2.45;1.30;;;;;;;-145.18;100.00;60484.78;5048964;28;20029;-67
2023/03/13 12:46:32;;;;;;;2.72;1.00;;;;;;;-145.18;100.00;60484.78;5053242;28;20025;-67
2023/03/13 12:49:26;;;;;;;3.63;1.23;;;;;;;-145.18;100.00;60484.78;5051963;28;20473;-67
2023/03/13 12:52:31;;;;;;;4.32;1.20;;;;;;;-145.18;100.00;60484.78;5033481;28;20033;-70
2023/03/13 12:55:03;;;;;;;2.13;0.98;;;;;;;-145.18;100.00;60484.78;5033795;28;20014;-67
2023/03/13 12:58:05;;;;;;;3.70;1.40;;;;;;;-145.18;100.00;60484.78;5033540;28;20485;-71
2023/03/13 13:00:35;;;;;;;3.88;1.00;;;;;;;-145.18;100.00;60484.78;5048941;28;20029;-70
2023/03/13 13:03:15;;;;;;;2.83;1.00;;;;;;;-145.18;100.00;60484.78;5052811;28;20032;-67
2023/03/13 13:06:11;;;;;;;3.70;1.20;;;;;;;-145.18;100.00;60484.78;5052478;28;20075;-65
2023/03/13 13:08:58;;;;;;;4.95;1.35;;;;;;;-145.18;100.00;60484.78;5053405;28;20021;-64
2023/03/13 13:11:32;;;;;;;3.50;1.00;;;;;;;-145.18;100.00;60484.78;5052863;28;20086;-65
2023/03/13 13:13:58;;;;;;;3.45;1.30;;;;;;;-145.18;100.00;60484.78;5053242;28;20037;-67
2023/03/13 13:16:25;;;;;;;4.45;1.20;;;;;;;-145.18;100.00;60484.78;5053483;28;20032;-66
2023/03/13 13:18:51;;;;;;;3.00;1.05;;;;;;;-145.18;100.00;60484.78;5050095;28;20029;-63
2023/03/13 13:21:17;;;;;;;4.65;1.05;;;;;;;-145.18;100.00;60484.78;5052974;28;20024;-66
2023/03/13 13:23:49;;;;;;;3.58;1.35;;;;;;;-145.18;100.00;60484.78;5053579;28;20508;-63
2023/03/13 13:26:25;;;;;;;5.20;1.30;;;;;;;-145.18;100.00;60484.78;5060422;28;20063;-66
2023/03/13 13:28:51;;;;;;;4.53;1.83;;;;;;;-145.18;100.00;60484.78;5057307;28;20028;-65
2023/03/13 13:31:55;;;;;;;3.42;1.40;;;;;;;-145.18;100.00;60484.78;5063879;28;20021;-71
2023/03/13 13:34:26;;;;;;;3.10;1.08;;;;;;;-145.18;100.00;60484.78;5061696;28;20063;-63
2023/03/13 13:36:56;;;;;;;3.65;1.45;;;;;;;-145.18;100.00;60484.78;5065140;28;20028;-69
2023/03/13 13:39:33;;;;;;;2.63;1.15;;;;;;;-145.18;100.00;60484.78;5065308;28;20139;-63
2023/03/13 13:41:58;;;;;;;4.32;1.20;;;;;;;-145.18;100.00;60484.78;5057435;28;20089;-63
2023/03/13 13:44:28;;;;;;;3.88;1.02;;;;;;;-145.18;100.00;60484.78;5057677;28;20443;-65
2023/03/13 13:46:56;;;;;;;5.55;1.08;;;;;;;-145.18;100.00;60484.78;5058665;28;20511;-65
2023/03/13 13:49:29;;;;;;;2.83;1.00;;;;;;;-145.18;100.00;60484.78;5060448;28;20477;-64
2023/03/13 13:52:01;;;;;;;9.05;1.48;;;;;;;-145.18;100.00;60484.78;5061831;28;20448;-62
2023/03/13 13:54:29;;;;;;;2.17;1.15;;;;;;;-145.18;100.00;60484.78;5058927;28;20060;-67
2023/03/13 13:57:01;;;;;;;2.92;1.20;;;;;;;-145.18;100.00;60484.78;5061598;28;20035;-61
2023/03/13 13:59:40;;;;;;;4.03;1.30;;;;;;;-145.18;100.00;60484.78;5062138;28;20029;-69
2023/03/13 14:02:08;;;;;;;1.98;0.85;;;;;;;-145.18;100.00;60484.78;5062244;28;20025;-65
2023/03/13 14:04:40;;;;;;;5.38;1.27;;;;;;;-145.18;100.00;60484.78;5057286;28;20037;-69
2023/03/13 14:07:11;;;;;;;4.18;1.25;;;;;;;-145.18;100.00;60484.78;5063420;28;20025;-63
2023/03/13 14:09:39;;;;;;;2.92;1.13;;;;;;;-145.18;100.00;60484.78;5055843;28;20027;-66
2023/03/13 14:12:28;;;;;;;4.85;1.00;;;;;;;-145.18;100.00;60484.78;5057509;28;20438;-63
2023/03/13 14:15:14;;;;;;;4.05;1.25;;;;;;;-145.18;100.00;60484.78;5064007;28;20036;-66
2023/03/13 14:17:50;;;;;;;3.28;1.10;;;;;;;-145.18;100.00;60484.78;5065634;28;20028;-66
2023/03/13 14:20:51;;;;;;;3.20;1.35;;;;;;;-145.18;100.00;60484.78;5058733;28;20033;-66
2023/03/13 14:23:41;;;;;;;3.08;1.00;;;;;;;-145.18;100.00;60484.78;5059561;28;20119;-69
2023/03/13 14:26:16;;;;;;;4.10;1.20;;;;;;;-145.18;100.00;60484.78;5064211;28;20025;-64
2023/03/13 14:28:44;;;;;;;4.00;1.30;;;;;;;-145.18;100.00;60484.78;5064132;28;20033;-65
2023/03/13 14:31:27;;;;;;;3.92;1.05;;;;;;;-145.18;100.00;60484.78;5062354;28;20480;-66
2023/03/13 14:33:54;;;;;;;3.45;0.88;;;;;;;-145.18;100.00;60484.78;5068210;28;20028;-64
2023/03/13 14:36:20;;;;;;;3.65;1.13;;;;;;;-145.18;100.00;60484.78;5073384;28;20044;-67
2023/03/13 14:38:56;;;;;;;4.68;1.38;;;;;;;-145.18;100.00;60484.78;5074395;28;20028;-64
2023/03/13 14:41:34;;;;;;;2.25;1.02;;;;;;;-145.18;100.00;60484.78;5071685;28;20029;-64
2023/03/13 14:44:40;;;;;;;2.95;1.40;;;;;;;-145.18;100.00;60484.78;5073283;28;20005;-68
2023/03/13 14:47:18;;;;;;;4.43;0.98;;;;;;;-145.18;100.00;60484.78;5034302;28;20392;-69
2023/03/13 14:49:46;;;;;;;3.80;1.05;;;;;;;-145.18;100.00;60484.78;5050912;28;20039;-66
2023/03/13 14:52:25;;;;;;;2.45;0.90;;;;;;;-145.18;100.00;60484.78;5036296;28;20029;-67
2023/03/13 14:54:56;;;;;;;2.47;0.88;;;;;;;-145.18;100.00;60484.78;5037833;28;20033;-65
2023/03/13 14:57:26;;;;;;;3.63;1.10;;;;;;;-145.18;100.00;60484.78;5054899;28;20082;-65
2023/03/13 14:59:52;;;;;;;4.03;1.25;;;;;;;-145.18;100.00;60484.78;5055693;28;20485;-69
2023/03/13 15:02:37;;;;;;;2.70;1.20;;;;;;;-145.18;100.00;60484.78;5055588;28;20380;-69
2023/03/13 15:05:06;;;;;;;5.03;1.10;;;;;;;-145.18;100.00;60484.78;5046911;28;20030;-70
2023/03/13 15:07:50;;;;;;;5.13;1.23;;;;;;;-145.18;100.00;60484.78;5044289;28;20025;-69
2023/03/13 15:10:24;;;;;;;4.30;1.20;;;;;;;-145.18;100.00;60484.78;5054438;28;20033;-67
2023/03/13 15:12:49;;;;;;;3.15;1.00;;;;;;;-145.18;100.00;60484.78;5068289;28;20476;-70
2023/03/13 15:15:15;;;;;;;3.38;1.30;;;;;;;-145.18;100.00;60484.78;5069260;28;20075;-68
2023/03/13 15:17:40;;;;;;;3.80;1.00;;;;;;;-145.18;100.00;60484.78;5064988;28;20016;-64
2023/03/13 15:20:08;;;;;;;2.92;1.13;;;;;;;-145.18;100.00;60484.78;5068451;28;20029;-69
2023/03/13 15:22:39;;;;;;;2.63;1.20;;;;;;;-145.18;100.00;60484.78;5064590;28;20024;-70
2023/03/13 15:25:16;;;;;;;2.08;1.00;;;;;;;-145.18;100.00;60484.78;5066663;28;20059;-69
2023/03/13 15:27:41;;;;;;;3.22;1.20;;;;;;;-145.18;100.00;60484.78;5063622;28;20040;-70
2023/03/13 15:30:07;;;;;;;4.72;1.40;;;;;;;-145.18;100.00;60484.78;5066710;28;20017;-70
2023/03/13 15:32:35;;;;;;;6.05;1.40;;;;;;;-145.18;100.00;60484.78;5071226;28;20037;-69
2023/03/13 15:35:02;;;;;;;3.28;1.30;;;;;;;-145.18;100.00;60484.78;5068691;28;20542;-69
2023/03/13 15:37:29;;;;;;;3.42;1.10;;;;;;;-145.18;100.00;60484.78;5067559;28;20031;-71
2023/03/13 15:39:55;;;;;;;2.65;1.20;;;;;;;-145.18;100.00;60484.78;5066311;28;20036;-70
2023/03/13 15:42:22;;;;;;;4.43;1.40;;;;;;;-145.18;100.00;60484.78;5068848;28;20051;-71
2023/03/13 15:44:48;;;;;;;2.85;1.08;;;;;;;-145.18;100.00;60484.78;5065626;28;20496;-71
2023/03/13 15:47:18;;;;;;;2.55;0.85;;;;;;;-145.18;100.00;60484.78;5070034;28;20012;-66
2023/03/13 15:49:43;;;;;;;3.25;1.17;;;;;;;-145.18;100.00;60484.78;5075582;28;20037;-68
2023/03/13 15:52:18;;;;;;;4.47;1.20;;;;;;;-145.18;100.00;60484.78;5077000;28;20040;-70
2023/03/13 15:54:48;;;;;;;4.28;1.17;;;;;;;-145.18;100.00;60484.78;5077114;28;20029;-69
2023/03/13 15:57:24;;;;;;;4.75;1.30;;;;;;;-145.18;100.00;60484.78;5077823;28;20085;-71
2023/03/13 15:59:51;;;;;;;2.92;1.30;;;;;;;-145.18;100.00;60484.78;5048410;28;20033;-69
2023/03/13 16:02:20;;;;;;;4.18;1.20;;;;;;;-145.18;100.00;60484.78;5034561;28;20033;-67
2023/03/13 16:04:45;;;;;;;5.28;1.02;;;;;;;-145.18;100.00;60484.78;5053928;28;20028;-68
2023/03/13 16:07:13;;;;;;;4.88;1.20;;;;;;;-145.18;100.00;60484.78;5054527;28;20028;-68
2023/03/13 16:09:40;;;;;;;3.03;1.10;;;;;;;-145.18;100.00;60484.78;5053648;28;20489;-68
2023/03/13 16:12:05;;;;;;;4.40;1.20;;;;;;;-145.18;100.00;60484.78;5054316;28;20503;-69
2023/03/13 16:14:31;;;;;;;3.20;0.93;;;;;;;-145.18;100.00;60484.78;5052205;28;20021;-68
2023/03/13 16:16:57;;;;;;;5.90;1.20;;;;;;;-145.18;100.00;60484.78;5038168;28;20044;-70
2023/03/13 16:19:22;;;;;;;5.10;1.15;;;;;;;-145.18;100.00;60484.78;5042780;28;20481;-66
2023/03/13 16:21:48;;;;;;;3.45;1.10;;;;;;;-145.18;100.00;60484.78;5046479;28;20021;-70
2023/03/13 16:24:16;;;;;;;3.67;1.20;;;;;;;-145.18;100.00;60484.78;5046645;28;20473;-68
2023/03/13 16:26:42;;;;;;;4.40;1.20;;;;;;;-145.18;100.00;60484.78;5045918;28;20029;-70